createdAt,value
2022-09-15T00:01:19.731Z,81.41
2022-09-15T00:03:48.763Z,81.60
2022-09-15T00:06:17.274Z,81.77
2022-09-15T00:08:45.140Z,81.85
2022-09-15T00:11:23.146Z,82.46
2022-09-15T00:13:52.139Z,82.83
2022-09-15T00:16:24.286Z,84.63
2022-09-15T00:18:52.723Z,84.97
2022-09-15T00:21:26.555Z,83.62
2022-09-15T00:23:55.177Z,83.17
2022-09-15T00:26:26.539Z,82.65
2022-09-15T00:28:58.131Z,82.49
2022-09-15T00:31:28.573Z,82.30
2022-09-15T00:33:59.012Z,82.28
2022-09-15T00:36:27.051Z,82.75
2022-09-15T00:38:55.910Z,82.82
2022-09-15T00:41:25.004Z,82.80
2022-09-15T00:43:57.454Z,82.94
2022-09-15T00:46:34.318Z,82.41
2022-09-15T00:49:14.718Z,82.38
2022-09-15T00:51:52.618Z,82.49
2022-09-15T00:54:31.830Z,82.61
2022-09-15T00:57:06.909Z,83.28
2022-09-15T00:59:39.136Z,83.79
2022-09-15T01:02:21.714Z,83.27
2022-09-15T01:04:57.431Z,82.81
2022-09-15T01:07:39.965Z,82.86
2022-09-15T01:10:17.650Z,83.14
2022-09-15T01:12:45.702Z,83.14
2022-09-15T01:15:13.731Z,83.53
2022-09-15T01:18:14.611Z,83.68
2022-09-15T01:21:24.495Z,83.75
2022-09-15T01:24:20.022Z,84.25
2022-09-15T01:27:40.964Z,83.82
2022-09-15T01:30:21.514Z,83.09
2022-09-15T01:33:36.587Z,83.86
2022-09-15T01:36:34.297Z,83.49
2022-09-15T01:39:16.852Z,82.82
2022-09-15T01:41:55.471Z,82.64
2022-09-15T01:44:29.120Z,82.72
2022-09-15T01:47:03.033Z,83.18
2022-09-15T01:49:59.486Z,83.65
2022-09-15T01:52:29.150Z,83.45
2022-09-15T01:55:02.394Z,83.13
2022-09-15T01:57:30.279Z,82.96
2022-09-15T01:59:59.609Z,83.06
2022-09-15T02:02:48.086Z,82.64
2022-09-15T02:05:45.180Z,82.78
2022-09-15T02:08:25.120Z,82.53
2022-09-15T02:11:16.618Z,82.73
2022-09-15T02:14:17.242Z,82.52
2022-09-15T02:16:50.166Z,82.06
2022-09-15T02:19:37.164Z,82.18
2022-09-15T02:22:14.505Z,82.88
2022-09-15T02:25:02.950Z,82.75
2022-09-15T02:27:38.902Z,82.16
2022-09-15T02:30:11.835Z,82.18
2022-09-15T02:32:49.665Z,82.24
2022-09-15T02:35:17.971Z,82.21
2022-09-15T02:37:46.675Z,82.47
2022-09-15T02:40:14.872Z,82.34
2022-09-15T02:42:56.700Z,82.67
2022-09-15T02:45:25.496Z,82.67
2022-09-15T02:47:53.319Z,82.56
2022-09-15T02:50:21.212Z,82.66
2022-09-15T02:52:48.914Z,82.72
2022-09-15T02:55:16.623Z,82.74
2022-09-15T02:57:44.379Z,82.79
2022-09-15T03:00:13.560Z,82.66
2022-09-15T03:02:43.790Z,82.57
2022-09-15T03:05:14.684Z,82.51
2022-09-15T03:07:43.716Z,82.68
2022-09-15T03:10:13.288Z,82.58
2022-09-15T03:12:46.602Z,82.58
2022-09-15T03:15:19.120Z,82.67
2022-09-15T03:17:48.427Z,82.68
2022-09-15T03:20:21.752Z,82.80
2022-09-15T03:22:50.186Z,83.20
2022-09-15T03:25:18.514Z,83.12
2022-09-15T03:27:46.839Z,83.25
2022-09-15T03:30:15.346Z,83.49
2022-09-15T03:32:43.825Z,83.63
2022-09-15T03:35:11.649Z,83.76
2022-09-15T03:37:39.444Z,83.79
2022-09-15T03:40:08.156Z,83.82
2022-09-15T03:42:35.864Z,84.16
2022-09-15T03:45:04.429Z,84.04
2022-09-15T03:47:33.218Z,84.23
2022-09-15T03:50:00.962Z,84.25
2022-09-15T03:52:32.127Z,84.23
2022-09-15T03:54:59.822Z,84.20
2022-09-15T03:57:27.707Z,83.93
2022-09-15T03:59:55.475Z,83.93
2022-09-15T04:02:23.318Z,83.74
2022-09-15T04:04:51.074Z,83.75
2022-09-15T04:07:18.804Z,83.86
2022-09-15T04:09:46.520Z,83.79
2022-09-15T04:12:14.217Z,83.81
2022-09-15T04:14:42.159Z,83.76
2022-09-15T04:17:11.571Z,83.71
2022-09-15T04:19:39.334Z,83.60
2022-09-15T04:22:08.026Z,83.63
2022-09-15T04:24:35.887Z,83.57
2022-09-15T04:27:03.931Z,83.54
2022-09-15T04:29:31.764Z,83.35
2022-09-15T04:31:59.446Z,83.50
2022-09-15T04:34:27.202Z,83.51
2022-09-15T04:36:54.992Z,83.36
2022-09-15T04:39:22.882Z,83.42
2022-09-15T04:41:50.925Z,83.03
2022-09-15T04:44:18.802Z,82.82
2022-09-15T04:46:46.592Z,83.04
2022-09-15T04:49:14.484Z,82.95
2022-09-15T04:51:42.195Z,82.78
2022-09-15T04:54:09.902Z,82.59
2022-09-15T04:56:38.519Z,82.50
2022-09-15T04:59:06.247Z,82.93
2022-09-15T05:01:35.513Z,82.97
2022-09-15T05:04:04.324Z,83.30
2022-09-15T05:06:34.720Z,83.05
2022-09-15T05:09:09.949Z,83.28
2022-09-15T05:11:38.653Z,83.11
2022-09-15T05:14:07.994Z,82.62
2022-09-15T05:16:35.778Z,82.34
2022-09-15T05:19:04.702Z,82.29
2022-09-15T05:21:35.431Z,82.23
2022-09-15T05:24:07.473Z,82.30
2022-09-15T05:26:35.395Z,81.99
2022-09-15T05:29:03.127Z,82.12
2022-09-15T05:31:36.336Z,81.89
2022-09-15T05:34:06.723Z,81.72
2022-09-15T05:36:34.582Z,81.38
2022-09-15T05:39:02.375Z,81.34
2022-09-15T05:41:30.887Z,81.16
2022-09-15T05:43:59.096Z,80.75
2022-09-15T05:46:29.012Z,80.65
2022-09-15T05:48:59.031Z,80.28
2022-09-15T05:51:27.535Z,79.97
2022-09-15T05:53:55.348Z,80.00
2022-09-15T05:56:23.297Z,79.91
2022-09-15T05:58:51.014Z,79.71
2022-09-15T06:01:28.748Z,79.36
2022-09-15T06:03:58.285Z,79.09
2022-09-15T06:06:26.853Z,78.69
2022-09-15T06:08:58.865Z,78.61
2022-09-15T06:11:30.575Z,78.20
2022-09-15T06:14:01.048Z,77.61
2022-09-15T06:16:33.190Z,77.50
2022-09-15T06:19:01.821Z,77.51
2022-09-15T06:21:32.565Z,77.08
2022-09-15T06:24:04.435Z,77.11
2022-09-15T06:26:33.180Z,77.13
2022-09-15T06:29:03.709Z,76.31
2022-09-15T06:31:33.778Z,76.56
2022-09-15T06:34:04.000Z,76.77
2022-09-15T06:36:32.662Z,76.54
2022-09-15T06:39:00.501Z,76.45
2022-09-15T06:41:33.015Z,76.29
2022-09-15T06:44:17.564Z,75.63
2022-09-15T06:46:45.551Z,75.49
2022-09-15T06:49:14.143Z,75.30
2022-09-15T06:51:42.012Z,75.26
2022-09-15T06:54:09.855Z,75.14
2022-09-15T06:56:38.392Z,75.49
2022-09-15T06:59:07.365Z,75.24
2022-09-15T07:01:40.999Z,74.99
2022-09-15T07:04:10.133Z,74.43
2022-09-15T07:06:39.887Z,74.13
2022-09-15T07:09:08.156Z,73.90
2022-09-15T07:11:36.080Z,73.57
2022-09-15T07:14:04.933Z,73.32
2022-09-15T07:16:33.612Z,73.79
2022-09-15T07:19:03.559Z,73.57
2022-09-15T07:21:31.470Z,73.12
2022-09-15T07:24:03.709Z,72.98
2022-09-15T07:26:35.284Z,72.52
2022-09-15T07:29:06.767Z,72.27
2022-09-15T07:31:38.344Z,70.68
2022-09-15T07:34:07.661Z,70.87
2022-09-15T07:36:35.710Z,70.71
2022-09-15T07:39:05.504Z,70.25
2022-09-15T07:41:33.867Z,69.22
2022-09-15T07:44:02.046Z,68.60
2022-09-15T07:46:32.543Z,68.38
2022-09-15T07:49:03.039Z,68.00
2022-09-15T07:51:31.556Z,68.03
2022-09-15T07:53:59.606Z,68.59
2022-09-15T07:56:27.579Z,68.36
2022-09-15T07:58:56.499Z,67.65
2022-09-15T08:01:24.942Z,68.26
2022-09-15T08:03:53.422Z,68.11
2022-09-15T08:06:25.108Z,69.18
2022-09-15T08:08:59.262Z,68.17
2022-09-15T08:11:29.955Z,68.28
2022-09-15T08:14:02.261Z,67.59
2022-09-15T08:16:30.362Z,67.34
2022-09-15T08:18:58.411Z,66.70
2022-09-15T08:21:27.761Z,66.51
2022-09-15T08:23:59.204Z,66.66
2022-09-15T08:26:28.958Z,66.07
2022-09-15T08:28:57.898Z,65.72
2022-09-15T08:31:26.075Z,66.41
2022-09-15T08:33:56.130Z,64.90
2022-09-15T08:36:27.731Z,64.07
2022-09-15T08:38:56.461Z,64.13
2022-09-15T08:41:37.268Z,63.99
2022-09-15T08:44:30.279Z,63.98
2022-09-15T08:47:34.242Z,63.51
2022-09-15T08:50:23.072Z,63.12
2022-09-15T08:53:00.778Z,62.14
2022-09-15T08:55:52.612Z,62.23
2022-09-15T08:58:25.801Z,60.76
2022-09-15T09:01:18.725Z,60.08
2022-09-15T09:04:41.363Z,60.24
2022-09-15T09:07:34.091Z,59.81
2022-09-15T09:10:19.380Z,60.76
2022-09-15T09:13:18.364Z,62.00
2022-09-15T09:16:09.793Z,62.42
2022-09-15T09:19:22.907Z,61.92
2022-09-15T09:22:07.907Z,60.81
2022-09-15T09:24:46.998Z,60.16
2022-09-15T09:27:20.502Z,59.12
2022-09-15T09:29:55.918Z,58.80
2022-09-15T09:32:31.943Z,58.66
2022-09-15T09:35:29.011Z,58.22
2022-09-15T09:37:57.739Z,58.01
2022-09-15T09:40:26.249Z,57.64
2022-09-15T09:42:54.230Z,58.44
2022-09-15T09:45:22.948Z,58.63
2022-09-15T09:47:50.952Z,58.46
2022-09-15T09:50:44.627Z,58.40
2022-09-15T09:53:31.114Z,58.14
2022-09-15T09:56:26.122Z,58.97
2022-09-15T09:58:54.547Z,58.08
2022-09-15T10:01:26.155Z,57.38
2022-09-15T10:04:21.121Z,57.27
2022-09-15T10:06:49.234Z,57.17
2022-09-15T10:09:19.616Z,57.29
2022-09-15T10:11:57.562Z,57.92
2022-09-15T10:14:38.528Z,57.37
2022-09-15T10:17:42.845Z,56.98
2022-09-15T10:20:26.175Z,58.06
2022-09-15T10:23:07.522Z,57.58
2022-09-15T10:25:58.697Z,57.91
2022-09-15T10:28:27.665Z,58.29
2022-09-15T10:31:07.727Z,58.09
2022-09-15T10:33:38.907Z,57.84
2022-09-15T10:36:20.816Z,58.02
2022-09-15T10:39:00.484Z,57.19
2022-09-15T10:41:36.195Z,56.25
2022-09-15T10:44:48.445Z,56.52
2022-09-15T10:47:36.734Z,57.71
2022-09-15T10:50:42.649Z,58.30
2022-09-15T10:53:25.770Z,57.69
2022-09-15T10:56:25.352Z,56.88
2022-09-15T10:59:36.843Z,57.02
2022-09-15T11:02:45.402Z,57.73
2022-09-15T11:05:28.626Z,58.18
2022-09-15T11:08:57.875Z,57.66
2022-09-15T11:12:17.140Z,58.78
2022-09-15T11:15:21.669Z,58.81
2022-09-15T11:18:16.790Z,58.73
2022-09-15T11:21:27.551Z,58.79
2022-09-15T11:24:27.072Z,60.23
2022-09-15T11:27:06.457Z,60.04
2022-09-15T11:30:04.346Z,60.78
2022-09-15T11:33:02.108Z,60.40
2022-09-15T11:35:39.287Z,60.28
2022-09-15T11:38:53.097Z,59.92
2022-09-15T11:41:23.888Z,60.05
2022-09-15T11:44:22.356Z,60.61
2022-09-15T11:47:21.053Z,60.71
2022-09-15T11:50:14.583Z,59.62
2022-09-15T11:53:01.211Z,59.03
2022-09-15T11:55:38.314Z,59.00
2022-09-15T11:58:09.134Z,57.34
2022-09-15T12:00:48.728Z,55.63
2022-09-15T12:03:46.018Z,54.36
2022-09-15T12:06:45.833Z,52.48
2022-09-15T12:09:18.249Z,52.23
2022-09-15T12:11:49.758Z,51.87
2022-09-15T12:14:41.290Z,51.98
2022-09-15T12:17:37.762Z,51.55
2022-09-15T12:20:23.510Z,52.59
2022-09-15T12:23:12.072Z,52.29
2022-09-15T12:25:55.544Z,52.62
2022-09-15T12:28:24.768Z,53.76
2022-09-15T12:31:14.477Z,54.32
2022-09-15T12:33:42.272Z,54.86
2022-09-15T12:36:47.447Z,54.22
2022-09-15T12:39:37.383Z,53.50
2022-09-15T12:42:31.356Z,52.61
2022-09-15T12:45:19.571Z,52.60
2022-09-15T12:48:33.587Z,51.73
2022-09-15T12:51:10.771Z,51.62
2022-09-15T12:54:02.644Z,52.11
2022-09-15T12:56:33.952Z,51.83
2022-09-15T12:59:07.574Z,51.06
2022-09-15T13:01:49.584Z,50.41
2022-09-15T13:04:41.891Z,50.36
2022-09-15T13:07:32.688Z,48.96
2022-09-15T13:10:10.759Z,49.13
2022-09-15T13:12:49.568Z,49.51
2022-09-15T13:15:18.953Z,48.43
2022-09-15T13:17:47.731Z,48.32
2022-09-15T13:20:23.815Z,48.38
2022-09-15T13:22:54.163Z,48.59
2022-09-15T13:25:29.708Z,48.76
2022-09-15T13:28:01.211Z,47.54
2022-09-15T13:31:05.186Z,47.31
2022-09-15T13:41:11.339Z,49.73
2022-09-15T13:44:19.564Z,49.62
2022-09-15T13:47:20.241Z,48.71
2022-09-15T13:50:40.646Z,48.83
2022-09-15T13:53:53.171Z,48.56
2022-09-15T13:56:41.426Z,48.32
2022-09-15T13:59:31.632Z,47.65
2022-09-15T14:02:00.777Z,46.36
2022-09-15T14:04:31.735Z,46.06
2022-09-15T14:07:01.996Z,45.63
2022-09-15T14:09:42.104Z,47.12
2022-09-15T14:12:14.937Z,48.13
2022-09-15T14:14:47.843Z,48.21
2022-09-15T14:17:26.696Z,48.73
2022-09-15T14:19:58.834Z,49.11
2022-09-15T14:22:35.542Z,48.56
2022-09-15T14:25:14.395Z,48.09
2022-09-15T14:27:49.877Z,47.54
2022-09-15T14:30:29.351Z,48.45
2022-09-15T14:33:01.232Z,48.64
2022-09-15T14:35:36.466Z,48.27
2022-09-15T14:38:05.323Z,49.08
2022-09-15T14:40:39.410Z,46.97
2022-09-15T14:43:30.799Z,45.16
2022-09-15T14:46:18.423Z,45.28
2022-09-15T14:48:46.496Z,45.50
2022-09-15T14:51:25.478Z,45.89
2022-09-15T14:53:57.955Z,46.24
2022-09-15T14:56:32.903Z,45.57
2022-09-15T14:59:16.659Z,45.72
2022-09-15T15:02:16.786Z,46.68
2022-09-15T15:04:54.237Z,47.62
2022-09-15T15:07:29.144Z,48.74
2022-09-15T15:10:04.446Z,48.68
2022-09-15T15:12:41.819Z,49.11
2022-09-15T15:15:16.034Z,49.01
2022-09-15T15:17:50.756Z,49.15
2022-09-15T15:20:27.064Z,48.70
2022-09-15T15:23:10.889Z,48.89
2022-09-15T15:25:39.403Z,48.74
2022-09-15T15:28:28.779Z,49.35
2022-09-15T15:31:17.845Z,49.00
2022-09-15T15:33:49.767Z,49.91
2022-09-15T15:36:23.820Z,50.00
2022-09-15T15:38:55.660Z,50.25
2022-09-15T15:41:27.839Z,50.90
2022-09-15T15:44:09.625Z,50.98
2022-09-15T15:46:55.715Z,50.66
2022-09-15T15:49:29.281Z,50.58
2022-09-15T15:52:00.088Z,50.52
2022-09-15T15:54:28.328Z,50.84
2022-09-15T15:57:20.175Z,51.37
2022-09-15T15:59:48.057Z,51.20
2022-09-15T16:02:15.947Z,51.61
2022-09-15T16:04:43.858Z,51.68
2022-09-15T16:07:17.949Z,52.00
2022-09-15T16:09:48.261Z,52.41
2022-09-15T16:12:16.663Z,52.63
2022-09-15T16:14:44.569Z,52.49
2022-09-15T16:17:12.974Z,52.83
2022-09-15T16:19:40.893Z,53.21
2022-09-15T16:22:17.892Z,53.75
2022-09-15T16:24:47.191Z,53.26
2022-09-15T16:27:17.935Z,53.42
2022-09-15T16:29:46.203Z,53.61
2022-09-15T16:32:20.804Z,53.75
2022-09-15T16:34:53.833Z,53.87
2022-09-15T16:37:22.141Z,54.78
2022-09-15T16:39:52.164Z,54.49
2022-09-15T16:42:20.149Z,55.02
2022-09-15T16:44:48.046Z,54.01
2022-09-15T16:47:15.946Z,54.72
2022-09-15T16:49:43.979Z,54.52
2022-09-15T16:52:13.472Z,54.66
2022-09-15T16:54:41.714Z,55.28
2022-09-15T16:57:09.563Z,55.52
2022-09-15T16:59:37.415Z,55.64
2022-09-15T17:02:13.496Z,55.76
2022-09-15T17:04:41.392Z,56.01
2022-09-15T17:07:09.204Z,56.45
2022-09-15T17:09:37.023Z,56.53
2022-09-15T17:12:05.277Z,57.18
2022-09-15T17:14:33.187Z,57.45
2022-09-15T17:17:01.051Z,57.61
2022-09-15T17:19:29.449Z,57.90
2022-09-15T17:21:57.256Z,58.29
2022-09-15T17:24:25.152Z,58.59
2022-09-15T17:26:53.272Z,59.18
2022-09-15T17:29:21.580Z,60.12
2022-09-15T17:31:49.503Z,59.50
2022-09-15T17:34:17.553Z,59.43
2022-09-15T17:36:45.419Z,60.02
2022-09-15T17:39:13.227Z,60.14
2022-09-15T17:41:41.080Z,60.22
2022-09-15T17:44:12.010Z,60.12
2022-09-15T17:46:40.029Z,60.60
2022-09-15T17:49:08.014Z,60.56
2022-09-15T17:51:36.366Z,60.91
2022-09-15T17:54:06.587Z,60.89
2022-09-15T17:56:34.458Z,61.03
2022-09-15T17:59:02.306Z,61.35
2022-09-15T18:01:30.245Z,61.58
2022-09-15T18:03:58.396Z,61.86
2022-09-15T18:06:26.294Z,62.02
2022-09-15T18:08:54.163Z,61.82
2022-09-15T18:11:22.178Z,62.44
2022-09-15T18:13:50.105Z,62.57
2022-09-15T18:16:18.106Z,62.75
2022-09-15T18:18:47.327Z,63.28
2022-09-15T18:21:28.948Z,63.06
2022-09-15T18:23:57.056Z,63.20
2022-09-15T18:26:26.629Z,63.67
2022-09-15T18:28:55.672Z,63.46
2022-09-15T18:31:23.781Z,63.37
2022-09-15T18:33:51.792Z,63.26
2022-09-15T18:36:20.746Z,63.01
2022-09-15T18:38:48.830Z,62.99
2022-09-15T18:41:17.013Z,63.04
2022-09-15T18:43:48.816Z,62.81
2022-09-15T18:46:17.832Z,62.70
2022-09-15T18:48:45.856Z,62.79
2022-09-15T18:51:23.779Z,62.73
2022-09-15T18:53:57.544Z,62.85
2022-09-15T18:56:25.591Z,62.77
2022-09-15T18:58:54.497Z,62.56
2022-09-15T19:01:23.250Z,62.67
2022-09-15T19:03:51.517Z,62.79
2022-09-15T19:06:19.454Z,62.69
2022-09-15T19:08:47.372Z,62.73
2022-09-15T19:11:15.332Z,62.89
2022-09-15T19:13:43.537Z,62.91
2022-09-15T19:16:11.662Z,62.80
2022-09-15T19:18:39.577Z,63.14
2022-09-15T19:21:10.647Z,63.49
2022-09-15T19:23:39.172Z,63.62
2022-09-15T19:26:13.631Z,63.98
2022-09-15T19:28:45.716Z,63.79
2022-09-15T19:31:13.761Z,63.77
2022-09-15T19:33:42.551Z,64.25
2022-09-15T19:36:27.379Z,64.53
2022-09-15T19:39:02.747Z,65.64
2022-09-15T19:41:31.589Z,66.18
2022-09-15T19:44:02.286Z,66.73
2022-09-15T19:46:31.076Z,67.17
2022-09-15T19:48:59.195Z,67.54
2022-09-15T19:51:27.171Z,67.62
2022-09-15T19:53:56.820Z,67.80
2022-09-15T19:56:26.663Z,68.12
2022-09-15T19:58:57.384Z,68.26
2022-09-15T20:01:28.462Z,68.46
2022-09-15T20:03:57.415Z,68.09
2022-09-15T20:06:28.940Z,68.00
2022-09-15T20:09:00.502Z,67.77
2022-09-15T20:11:29.848Z,68.12
2022-09-15T20:13:58.990Z,68.08
2022-09-15T20:16:27.463Z,68.65
2022-09-15T20:18:56.464Z,68.70
2022-09-15T20:21:49.123Z,68.98
2022-09-15T20:24:19.831Z,69.41
2022-09-15T20:26:48.449Z,69.89
2022-09-15T20:29:16.543Z,69.91
2022-09-15T20:31:45.079Z,70.09
2022-09-15T20:34:13.426Z,70.21
2022-09-15T20:36:41.365Z,70.35
2022-09-15T20:39:13.340Z,70.65
2022-09-15T20:41:46.517Z,70.92
2022-09-15T20:44:14.915Z,71.25
2022-09-15T20:46:43.204Z,71.41
2022-09-15T20:49:12.528Z,71.76
2022-09-15T20:51:40.451Z,72.06
2022-09-15T20:54:10.881Z,72.45
2022-09-15T20:56:38.919Z,72.65
2022-09-15T20:59:10.283Z,72.82
2022-09-15T21:01:39.686Z,73.39
2022-09-15T21:04:09.579Z,73.39
2022-09-15T21:06:39.279Z,73.64
2022-09-15T21:09:07.871Z,74.18
2022-09-15T21:11:36.867Z,74.39
2022-09-15T21:14:04.859Z,74.74
2022-09-15T21:16:34.888Z,74.54
2022-09-15T21:19:03.730Z,74.51
2022-09-15T21:21:33.640Z,74.51
2022-09-15T21:24:07.929Z,74.44
2022-09-15T21:26:58.103Z,74.64
2022-09-15T21:29:27.911Z,74.85
2022-09-15T21:31:56.385Z,74.89
2022-09-15T21:34:24.449Z,75.18
2022-09-15T21:36:53.613Z,75.33
2022-09-15T21:39:21.583Z,75.42
2022-09-15T21:41:49.970Z,74.75
2022-09-15T21:44:18.044Z,75.24
2022-09-15T21:46:47.267Z,75.09
2022-09-15T21:49:15.214Z,74.86
2022-09-15T21:51:43.062Z,74.97
2022-09-15T21:54:10.878Z,74.96
2022-09-15T21:56:38.772Z,75.17
2022-09-15T21:59:09.009Z,75.24
2022-09-15T22:01:37.107Z,75.16
2022-09-15T22:04:07.630Z,75.06
2022-09-15T22:06:40.429Z,75.26
2022-09-15T22:09:16.639Z,75.38
2022-09-15T22:11:44.827Z,75.58
2022-09-15T22:14:13.266Z,75.84
2022-09-15T22:16:42.994Z,75.79
2022-09-15T22:19:12.230Z,75.83
2022-09-15T22:21:42.050Z,76.15
2022-09-15T22:24:13.457Z,76.44
2022-09-15T22:26:43.473Z,76.01
2022-09-15T22:29:11.767Z,76.19
2022-09-15T22:31:40.957Z,76.10
2022-09-15T22:34:09.478Z,76.42
2022-09-15T22:36:37.304Z,76.21
2022-09-15T22:39:06.317Z,76.19
2022-09-15T22:41:39.004Z,76.17
2022-09-15T22:44:16.882Z,76.27
2022-09-15T22:46:45.102Z,76.40
2022-09-15T22:49:12.955Z,76.27
2022-09-15T22:51:40.878Z,76.36
2022-09-15T22:54:08.807Z,76.28
2022-09-15T22:56:36.651Z,76.48
2022-09-15T22:59:04.530Z,76.42
2022-09-15T23:01:32.437Z,76.49
2022-09-15T23:04:02.455Z,76.76
2022-09-15T23:06:33.667Z,76.85
2022-09-15T23:09:08.532Z,76.88
2022-09-15T23:11:39.753Z,77.21
2022-09-15T23:14:13.801Z,77.21
2022-09-15T23:16:43.365Z,77.67
2022-09-15T23:19:14.592Z,77.61
2022-09-15T23:21:42.555Z,77.36
2022-09-15T23:24:12.420Z,77.54
2022-09-15T23:26:40.493Z,77.70
2022-09-15T23:29:08.402Z,77.78
2022-09-15T23:31:36.518Z,78.04
2022-09-15T23:34:04.512Z,78.27
2022-09-15T23:36:32.404Z,78.26
2022-09-15T23:39:00.339Z,78.33
2022-09-15T23:41:28.212Z,78.48
2022-09-15T23:43:56.914Z,78.64
2022-09-15T23:46:24.933Z,78.56
2022-09-15T23:48:52.841Z,78.67
2022-09-15T23:51:20.770Z,78.56
2022-09-15T23:53:48.583Z,78.81
2022-09-15T23:56:16.425Z,78.93
2022-09-15T23:58:44.399Z,79.06
